DAL40 YSSY-KLAX
Flight info
| Callsign | DAL40 |
|---|---|
| Flight time | N/A |
| Altitude | 35000 |
| Route | DIPSO G595 SOTKI DCT LHI B450 DOLSI/N0490F370 B450 TUT DCT 05S163W/N0485F390 00N159W 05N155W 10N150W 17N140W/N0475F410 25N130W DCT FICKY GOATZ2 |
| Aircraft | A359/H-SDE2E3GHIJ1J3J4J5LM1ORWXY/LB1D1 |
Departure
| Time | 2026-05-01 11:33 |
|---|---|
| Airport | Sydney Kingsford Smith International Airport (YSSY) |
Arrival
| Time | N/A |
|---|---|
| Airport | Los Angeles International Airport (KLAX) |
| Time | Latitude | Longitude | Altitude | Speed | Heading |
|---|---|---|---|---|---|
| 2026-05-01 10:02 | -33.94013 | 151.16616 | 36 ft | 0 kts | 344° |
| 2026-05-01 11:14 | -33.94017 | 151.16617 | 36 ft | 3 kts | 345° |
| 2026-05-01 11:14 | -33.94043 | 151.16624 | 36 ft | 4 kts | 354° |
| 2026-05-01 11:15 | -33.94070 | 151.16625 | 36 ft | 4 kts | 5° |
| 2026-05-01 11:15 | -33.94096 | 151.16619 | 36 ft | 4 kts | 23° |
| 2026-05-01 11:15 | -33.94117 | 151.16602 | 36 ft | 4 kts | 65° |
| 2026-05-01 11:15 | -33.94119 | 151.16595 | 36 ft | 0 kts | 74° |
| 2026-05-01 11:18 | -33.94119 | 151.16596 | 36 ft | 1 kts | 74° |
| 2026-05-01 11:18 | -33.94116 | 151.16611 | 36 ft | 4 kts | 75° |
| 2026-05-01 11:19 | -33.94104 | 151.16662 | 36 ft | 9 kts | 74° |
| 2026-05-01 11:19 | -33.94087 | 151.16738 | 36 ft | 10 kts | 75° |
| 2026-05-01 11:19 | -33.94067 | 151.16820 | 36 ft | 11 kts | 73° |
| 2026-05-01 11:19 | -33.94046 | 151.16909 | 36 ft | 11 kts | 74° |
| 2026-05-01 11:20 | -33.94024 | 151.17004 | 36 ft | 12 kts | 73° |
| 2026-05-01 11:20 | -33.94000 | 151.17104 | 36 ft | 13 kts | 74° |
| 2026-05-01 11:20 | -33.93975 | 151.17209 | 35 ft | 14 kts | 73° |
| 2026-05-01 11:20 | -33.93947 | 151.17324 | 33 ft | 15 kts | 74° |
| 2026-05-01 11:21 | -33.93916 | 151.17452 | 33 ft | 16 kts | 74° |
| 2026-05-01 11:21 | -33.93887 | 151.17578 | 35 ft | 15 kts | 74° |
| 2026-05-01 11:21 | -33.93859 | 151.17696 | 35 ft | 13 kts | 74° |
| 2026-05-01 11:21 | -33.93867 | 151.17767 | 36 ft | 8 kts | 142° |
| 2026-05-01 11:22 | -33.93923 | 151.17784 | 35 ft | 10 kts | 168° |
| 2026-05-01 11:22 | -33.94000 | 151.17804 | 35 ft | 13 kts | 167° |
| 2026-05-01 11:22 | -33.94097 | 151.17830 | 35 ft | 15 kts | 168° |
| 2026-05-01 11:22 | -33.94196 | 151.17855 | 36 ft | 15 kts | 168° |
| 2026-05-01 11:23 | -33.94297 | 151.17881 | 36 ft | 15 kts | 168° |
| 2026-05-01 11:23 | -33.94399 | 151.17907 | 36 ft | 15 kts | 169° |
| 2026-05-01 11:23 | -33.94501 | 151.17883 | 36 ft | 15 kts | 193° |
| 2026-05-01 11:23 | -33.94603 | 151.17901 | 36 ft | 15 kts | 166° |
| 2026-05-01 11:24 | -33.94706 | 151.17929 | 36 ft | 15 kts | 168° |
| 2026-05-01 11:24 | -33.94809 | 151.17955 | 36 ft | 15 kts | 168° |
| 2026-05-01 11:24 | -33.95008 | 151.18008 | 36 ft | 10 kts | 168° |
| 2026-05-01 11:25 | -33.95071 | 151.18028 | 36 ft | 9 kts | 155° |
| 2026-05-01 11:25 | -33.95088 | 151.18169 | 36 ft | 11 kts | 79° |
| 2026-05-01 11:25 | -33.95071 | 151.18267 | 36 ft | 12 kts | 78° |
| 2026-05-01 11:26 | -33.95052 | 151.18370 | 36 ft | 13 kts | 78° |
| 2026-05-01 11:26 | -33.95095 | 151.18524 | 36 ft | 11 kts | 145° |
| 2026-05-01 11:26 | -33.95153 | 151.18585 | 36 ft | 11 kts | 137° |
| 2026-05-01 11:27 | -33.95214 | 151.18651 | 35 ft | 12 kts | 140° |
| 2026-05-01 11:27 | -33.95298 | 151.18711 | 36 ft | 15 kts | 160° |
| 2026-05-01 11:27 | -33.95402 | 151.18741 | 36 ft | 16 kts | 167° |
| 2026-05-01 11:27 | -33.95514 | 151.18771 | 36 ft | 18 kts | 167° |
| 2026-05-01 11:28 | -33.95644 | 151.18805 | 36 ft | 20 kts | 167° |
| 2026-05-01 11:28 | -33.95790 | 151.18843 | 36 ft | 23 kts | 168° |
| 2026-05-01 11:28 | -33.95944 | 151.18881 | 36 ft | 23 kts | 168° |
| 2026-05-01 11:29 | -33.96251 | 151.18962 | 36 ft | 22 kts | 168° |
| 2026-05-01 11:29 | -33.96403 | 151.19001 | 36 ft | 22 kts | 168° |
| 2026-05-01 11:29 | -33.96659 | 151.19068 | 36 ft | 14 kts | 167° |
| 2026-05-01 11:30 | -33.96759 | 151.19067 | 36 ft | 15 kts | 189° |
| 2026-05-01 11:30 | -33.96859 | 151.19075 | 36 ft | 15 kts | 168° |
| 2026-05-01 11:30 | -33.96961 | 151.19101 | 36 ft | 15 kts | 168° |
| 2026-05-01 11:30 | -33.97064 | 151.19127 | 36 ft | 14 kts | 166° |
| 2026-05-01 11:31 | -33.97122 | 151.19187 | 34 ft | 11 kts | 103° |
| 2026-05-01 11:31 | -33.97111 | 151.19279 | 34 ft | 13 kts | 77° |
| 2026-05-01 11:31 | -33.97090 | 151.19366 | 32 ft | 6 kts | 51° |
| 2026-05-01 11:31 | -33.97063 | 151.19371 | 31 ft | 4 kts | 358° |
| 2026-05-01 11:32 | -33.97049 | 151.19368 | 31 ft | 0 kts | 349° |
| 2026-05-01 11:32 | -33.97019 | 151.19361 | 31 ft | 23 kts | 349° |
| 2026-05-01 11:32 | -33.96641 | 151.19264 | 29 ft | 87 kts | 347° |
| 2026-05-01 11:32 | -33.95864 | 151.19063 | 34 ft | 140 kts | 348° |
| 2026-05-01 11:33 | -33.94777 | 151.18787 | 278 ft | 159 kts | 348° |
| 2026-05-01 11:33 | -33.93754 | 151.18520 | 960 ft | 152 kts | 349° |
| 2026-05-01 11:33 | -33.92672 | 151.18708 | 1180 ft | 167 kts | 31° |
| 2026-05-01 11:33 | -33.92001 | 151.19858 | 1278 ft | 180 kts | 82° |
| 2026-05-01 11:34 | -33.92282 | 151.21336 | 1461 ft | 189 kts | 118° |
| 2026-05-01 11:34 | -33.92824 | 151.22829 | 1730 ft | 199 kts | 107° |
| 2026-05-01 11:34 | -33.93059 | 151.24495 | 2057 ft | 206 kts | 89° |
| 2026-05-01 11:34 | -33.92939 | 151.26265 | 2267 ft | 219 kts | 72° |
| 2026-05-01 11:35 | -33.92563 | 151.28083 | 2561 ft | 227 kts | 66° |
| 2026-05-01 11:35 | -33.92175 | 151.29940 | 2983 ft | 229 kts | 71° |
| 2026-05-01 11:35 | -33.91849 | 151.31836 | 3349 ft | 237 kts | 72° |
| 2026-05-01 11:35 | -33.91566 | 151.33857 | 3512 ft | 252 kts | 75° |
| 2026-05-01 11:36 | -33.91368 | 151.35952 | 3844 ft | 258 kts | 78° |
| 2026-05-01 11:36 | -33.91245 | 151.38111 | 4290 ft | 261 kts | 80° |
| 2026-05-01 11:36 | -33.91177 | 151.40311 | 4734 ft | 263 kts | 81° |
| 2026-05-01 11:36 | -33.91138 | 151.42524 | 5182 ft | 266 kts | 82° |
| 2026-05-01 11:37 | -33.91109 | 151.44761 | 5612 ft | 268 kts | 80° |
| 2026-05-01 11:37 | -33.91043 | 151.47015 | 5989 ft | 271 kts | 88° |